createdAt,value
2017-06-23T00:00:22.256Z,8.07
2017-06-23T00:02:50.630Z,7.90
2017-06-23T00:05:19.005Z,8.13
2017-06-23T00:07:47.404Z,7.07
2017-06-23T00:10:16.554Z,8.10
2017-06-23T00:12:44.958Z,7.77
2017-06-23T00:15:13.347Z,9.10
2017-06-23T00:17:41.726Z,8.07
2017-06-23T00:20:10.111Z,7.80
2017-06-23T00:22:39.265Z,8.13
2017-06-23T00:25:07.670Z,8.30
2017-06-23T00:27:36.054Z,8.20
2017-06-23T00:30:04.430Z,8.70
2017-06-23T00:32:32.826Z,7.80
2017-06-23T00:35:01.978Z,8.03
2017-06-23T00:37:30.384Z,7.60
2017-06-23T00:39:58.756Z,8.70
2017-06-23T00:42:27.146Z,8.07
2017-06-23T00:44:56.300Z,7.13
2017-06-23T00:47:24.689Z,8.77
2017-06-23T00:49:53.093Z,7.40
2017-06-23T00:52:21.483Z,7.80
2017-06-23T00:54:50.641Z,7.60
2017-06-23T00:57:19.029Z,7.80
2017-06-23T00:59:47.418Z,9.83
2017-06-23T01:02:15.825Z,8.70
2017-06-23T01:04:44.210Z,8.63
2017-06-23T01:07:12.610Z,8.00
2017-06-23T01:09:41.004Z,8.17
2017-06-23T01:12:09.380Z,9.03
2017-06-23T01:14:37.768Z,7.40
2017-06-23T01:17:06.171Z,9.20
2017-06-23T01:19:34.576Z,8.50
2017-06-23T01:22:02.995Z,8.80
2017-06-23T01:24:31.388Z,9.03
2017-06-23T01:26:59.776Z,8.93
2017-06-23T01:29:28.180Z,7.87
2017-06-23T01:31:56.563Z,8.33
2017-06-23T01:34:24.972Z,7.67
2017-06-23T01:36:53.378Z,8.80
2017-06-23T01:39:21.766Z,8.80
2017-06-23T01:41:50.184Z,8.90
2017-06-23T01:44:18.577Z,9.87
2017-06-23T01:46:46.978Z,10.67
2017-06-23T01:49:15.378Z,8.70
2017-06-23T01:51:43.773Z,8.97
2017-06-23T01:54:12.176Z,8.03
2017-06-23T01:56:40.565Z,8.83
2017-06-23T01:59:08.985Z,7.83
2017-06-23T02:01:37.360Z,7.70
2017-06-23T02:04:05.749Z,9.57
2017-06-23T02:06:34.153Z,7.77
2017-06-23T02:09:02.529Z,9.90
2017-06-23T02:11:31.504Z,8.53
2017-06-23T02:13:59.892Z,8.20
2017-06-23T02:16:29.076Z,9.80
2017-06-23T02:18:57.105Z,7.83
2017-06-23T02:21:25.494Z,7.80
2017-06-23T02:23:53.884Z,7.63
2017-06-23T02:26:22.288Z,7.50
2017-06-23T02:28:51.476Z,7.37
2017-06-23T02:31:19.865Z,7.00
2017-06-23T02:33:49.020Z,9.50
2017-06-23T02:36:17.421Z,9.03
2017-06-23T02:38:45.810Z,7.47
2017-06-23T02:41:14.981Z,8.50
2017-06-23T02:43:43.354Z,7.90
2017-06-23T02:46:11.738Z,7.97
2017-06-23T02:48:40.131Z,6.90
2017-06-23T02:51:08.524Z,6.93
2017-06-23T02:53:37.761Z,7.00
2017-06-23T02:56:06.158Z,7.93
2017-06-23T02:58:34.544Z,8.47
2017-06-23T03:01:02.949Z,7.77
2017-06-23T03:03:31.338Z,6.80
2017-06-23T03:06:00.524Z,7.40
2017-06-23T03:08:29.693Z,7.37
2017-06-23T03:10:58.083Z,7.77
2017-06-23T03:13:26.486Z,7.43
2017-06-23T03:15:54.869Z,7.77
2017-06-23T03:18:24.058Z,7.27
2017-06-23T03:20:53.229Z,6.70
2017-06-23T03:23:21.618Z,8.27
2017-06-23T03:25:50.024Z,6.40
2017-06-23T03:28:18.411Z,8.63
2017-06-23T03:30:46.816Z,8.10
2017-06-23T03:33:15.206Z,7.83
2017-06-23T03:35:43.594Z,7.30
2017-06-23T03:38:12.004Z,7.93
2017-06-23T03:40:41.165Z,7.87
2017-06-23T03:43:09.568Z,8.30
2017-06-23T03:45:37.963Z,6.97
2017-06-23T03:48:06.349Z,8.07
2017-06-23T03:50:34.737Z,6.90
2017-06-23T03:53:03.127Z,7.03
2017-06-23T03:55:31.533Z,8.20
2017-06-23T03:57:59.934Z,7.83
2017-06-23T04:00:29.088Z,7.90
2017-06-23T04:02:57.477Z,8.47
2017-06-23T04:05:25.869Z,8.37
2017-06-23T04:07:54.286Z,8.13
2017-06-23T04:10:22.690Z,8.70
2017-06-23T04:12:51.170Z,7.80
2017-06-23T04:15:19.577Z,7.23
2017-06-23T04:17:47.963Z,6.90
2017-06-23T04:20:16.383Z,7.50
2017-06-23T04:22:44.775Z,8.43
2017-06-23T04:25:13.161Z,8.13
2017-06-23T04:27:41.566Z,8.47
2017-06-23T04:30:09.954Z,7.07
2017-06-23T04:32:38.357Z,8.87
2017-06-23T04:35:07.523Z,8.53
2017-06-23T04:37:35.912Z,9.00
2017-06-23T04:40:04.324Z,7.23
2017-06-23T04:42:32.711Z,7.10
2017-06-23T04:45:01.118Z,7.80
2017-06-23T04:47:29.519Z,7.83
2017-06-23T04:49:57.918Z,7.43
2017-06-23T04:52:27.095Z,8.60
2017-06-23T04:54:55.536Z,8.40
2017-06-23T04:57:23.950Z,7.30
2017-06-23T04:59:52.336Z,7.20
2017-06-23T05:02:20.725Z,8.77
2017-06-23T05:04:49.908Z,9.30
2017-06-23T05:07:18.301Z,9.27
2017-06-23T05:09:46.705Z,7.77
2017-06-23T05:12:15.124Z,9.50
2017-06-23T05:14:43.513Z,7.37
2017-06-23T05:17:11.945Z,7.07
2017-06-23T05:19:40.337Z,7.50
2017-06-23T05:22:08.744Z,8.20
2017-06-23T05:24:37.208Z,7.40
2017-06-23T05:27:05.603Z,7.80
2017-06-23T05:29:33.997Z,8.53
2017-06-23T05:32:02.388Z,7.07
2017-06-23T05:34:31.560Z,7.30
2017-06-23T05:36:59.945Z,7.17
2017-06-23T05:39:28.771Z,6.70
2017-06-23T05:41:57.161Z,8.10
2017-06-23T05:44:25.549Z,7.57
2017-06-23T05:46:53.969Z,6.90
2017-06-23T05:49:22.357Z,7.23
2017-06-23T05:51:50.749Z,7.63
2017-06-23T05:54:19.915Z,7.60
2017-06-23T05:56:48.289Z,7.27
2017-06-23T05:59:16.497Z,8.27
2017-06-23T06:01:45.639Z,6.87
2017-06-23T06:04:14.031Z,7.57
2017-06-23T06:06:42.431Z,6.87
2017-06-23T06:09:10.808Z,8.07
2017-06-23T06:11:39.223Z,7.83
2017-06-23T06:14:07.598Z,7.90
2017-06-23T06:16:35.987Z,9.20
2017-06-23T06:19:04.386Z,7.43
2017-06-23T06:21:32.784Z,7.20
2017-06-23T06:24:01.200Z,8.17
2017-06-23T06:26:29.588Z,8.00
2017-06-23T06:28:57.966Z,8.30
2017-06-23T06:31:26.368Z,7.60
2017-06-23T06:33:54.757Z,8.77
2017-06-23T06:36:23.176Z,8.40
2017-06-23T06:38:52.350Z,6.40
2017-06-23T06:41:20.763Z,9.40
2017-06-23T06:43:49.934Z,7.90
2017-06-23T06:46:18.339Z,7.60
2017-06-23T06:48:46.744Z,9.50
2017-06-23T06:51:15.130Z,9.73
2017-06-23T06:53:43.536Z,10.93
2017-06-23T06:56:11.934Z,9.27
2017-06-23T06:58:41.094Z,8.90
2017-06-23T07:01:09.517Z,9.10
2017-06-23T07:03:38.667Z,9.10
2017-06-23T07:06:07.066Z,9.13
2017-06-23T07:08:35.462Z,8.87
2017-06-23T07:11:04.611Z,9.17
2017-06-23T07:13:33.017Z,7.57
2017-06-23T07:16:01.402Z,8.77
2017-06-23T07:18:29.786Z,9.20
2017-06-23T07:20:58.200Z,10.00
2017-06-23T07:23:26.577Z,8.33
2017-06-23T07:25:54.982Z,9.00
2017-06-23T07:28:23.384Z,8.83
2017-06-23T07:30:51.773Z,9.13
2017-06-23T07:33:20.177Z,10.37
2017-06-23T07:35:49.330Z,8.83
2017-06-23T07:38:17.736Z,8.60
2017-06-23T07:40:46.127Z,8.60
2017-06-23T07:43:14.515Z,8.50
2017-06-23T07:45:42.905Z,8.33
2017-06-23T07:48:11.277Z,8.20
2017-06-23T07:50:39.696Z,7.97
2017-06-23T07:53:08.074Z,7.97
2017-06-23T07:55:36.459Z,7.07
2017-06-23T07:58:04.853Z,9.33
2017-06-23T08:00:33.248Z,8.77
2017-06-23T08:03:01.662Z,7.50
2017-06-23T08:05:30.049Z,9.10
2017-06-23T08:07:58.438Z,7.30
2017-06-23T08:10:26.859Z,8.30
2017-06-23T08:12:56.025Z,8.43
2017-06-23T08:15:24.444Z,7.90
2017-06-23T08:17:53.600Z,7.60
2017-06-23T08:20:21.989Z,7.37
2017-06-23T08:22:50.393Z,8.00
2017-06-23T08:25:18.906Z,8.00
2017-06-23T08:27:47.323Z,7.40
2017-06-23T08:30:15.725Z,7.27
2017-06-23T08:32:44.881Z,5.97
2017-06-23T08:35:13.274Z,7.60
2017-06-23T08:37:41.660Z,8.50
2017-06-23T08:40:10.065Z,8.53
2017-06-23T08:42:39.218Z,5.73
2017-06-23T08:45:07.248Z,7.50
2017-06-23T08:47:35.638Z,7.03
2017-06-23T08:50:03.834Z,7.60
2017-06-23T08:52:32.237Z,7.03
2017-06-23T08:55:00.615Z,6.53
2017-06-23T08:57:28.995Z,6.53
2017-06-23T08:59:57.403Z,6.90
2017-06-23T09:02:25.795Z,8.03
2017-06-23T09:04:54.198Z,7.07
2017-06-23T09:07:22.587Z,8.37
2017-06-23T09:09:50.975Z,7.40
2017-06-23T09:12:19.365Z,6.57
2017-06-23T09:14:47.758Z,6.70
2017-06-23T09:17:16.177Z,6.03
2017-06-23T09:19:44.575Z,7.07
2017-06-23T09:22:12.969Z,7.40
2017-06-23T09:24:41.372Z,6.60
2017-06-23T09:27:09.766Z,8.17
2017-06-23T09:29:38.184Z,6.60
2017-06-23T09:32:06.586Z,7.70
2017-06-23T09:34:34.979Z,6.70
2017-06-23T09:37:04.205Z,7.20
2017-06-23T09:39:32.590Z,6.73
2017-06-23T09:42:01.022Z,6.70
2017-06-23T09:44:29.406Z,6.47
2017-06-23T09:46:57.792Z,6.10
2017-06-23T09:49:26.198Z,5.97
2017-06-23T09:51:54.602Z,6.13
2017-06-23T09:54:23.019Z,6.00
2017-06-23T09:56:51.411Z,5.30
2017-06-23T09:59:20.567Z,5.67
2017-06-23T10:01:48.785Z,6.57
2017-06-23T10:04:17.946Z,7.47
2017-06-23T10:06:46.337Z,6.20
2017-06-23T10:09:14.749Z,6.77
2017-06-23T10:11:43.131Z,7.37
2017-06-23T10:14:11.512Z,7.07
2017-06-23T10:16:39.920Z,6.47
2017-06-23T10:19:08.301Z,5.73
2017-06-23T10:21:36.682Z,6.90
2017-06-23T10:24:05.085Z,6.33
2017-06-23T10:26:33.475Z,6.97
2017-06-23T10:29:01.882Z,6.30
2017-06-23T10:31:30.284Z,6.40
2017-06-23T10:33:58.717Z,6.63
2017-06-23T10:36:27.122Z,5.80
2017-06-23T10:38:55.526Z,6.77
2017-06-23T10:41:23.930Z,6.60
2017-06-23T10:43:52.320Z,6.47
2017-06-23T10:46:21.505Z,6.77
2017-06-23T10:48:49.896Z,7.17
2017-06-23T10:51:19.049Z,7.10
2017-06-23T10:53:47.509Z,7.50
2017-06-23T10:56:15.904Z,6.80
2017-06-23T10:58:44.293Z,7.00
2017-06-23T11:01:12.697Z,6.70
2017-06-23T11:03:41.131Z,6.83
2017-06-23T11:06:09.519Z,6.80
2017-06-23T11:08:37.939Z,6.80
2017-06-23T11:11:06.316Z,7.90
2017-06-23T11:13:34.699Z,7.67
2017-06-23T11:16:03.137Z,6.00
2017-06-23T11:18:31.526Z,6.80
2017-06-23T11:20:59.919Z,7.37
2017-06-23T11:23:28.336Z,7.87
2017-06-23T11:25:56.725Z,6.50
2017-06-23T11:28:25.119Z,7.00
2017-06-23T11:30:53.537Z,7.20
2017-06-23T11:33:21.923Z,6.17
2017-06-23T11:35:50.313Z,6.93
2017-06-23T11:38:19.497Z,5.70
2017-06-23T11:40:47.874Z,6.70
2017-06-23T11:43:16.285Z,7.50
2017-06-23T11:45:44.697Z,6.20
2017-06-23T11:48:13.083Z,6.07
2017-06-23T11:50:41.473Z,6.00
2017-06-23T11:53:09.906Z,7.40
2017-06-23T11:55:38.298Z,5.80
2017-06-23T11:58:06.730Z,7.20
2017-06-23T12:00:35.154Z,6.63
2017-06-23T12:03:03.541Z,5.90
2017-06-23T12:05:31.945Z,5.77
2017-06-23T12:08:00.349Z,7.30
2017-06-23T12:10:29.517Z,5.83
2017-06-23T12:12:57.921Z,8.20
2017-06-23T12:15:26.333Z,7.77
2017-06-23T12:17:54.721Z,6.23
2017-06-23T12:20:23.109Z,7.23
2017-06-23T12:22:51.529Z,8.80
2017-06-23T12:25:19.917Z,7.80
2017-06-23T12:27:49.088Z,7.13
2017-06-23T12:30:17.505Z,8.20
2017-06-23T12:32:46.017Z,6.93
2017-06-23T12:35:14.404Z,6.93
2017-06-23T12:37:42.809Z,6.83
2017-06-23T12:40:11.203Z,6.60
2017-06-23T12:42:39.587Z,7.77
2017-06-23T12:45:08.774Z,8.80
2017-06-23T12:47:37.189Z,6.77
2017-06-23T12:50:05.575Z,7.03
2017-06-23T12:52:33.989Z,7.93
2017-06-23T12:55:02.377Z,7.23
2017-06-23T12:57:30.773Z,7.17
2017-06-23T12:59:59.947Z,7.50
2017-06-23T13:02:28.356Z,8.40
2017-06-23T13:04:57.520Z,7.70
2017-06-23T13:07:25.925Z,6.67
2017-06-23T13:09:55.096Z,6.63
2017-06-23T13:12:23.484Z,6.63
2017-06-23T13:14:51.892Z,6.83
2017-06-23T13:17:21.056Z,7.07
2017-06-23T13:19:49.552Z,7.30
2017-06-23T13:22:17.990Z,7.33
2017-06-23T13:24:47.376Z,8.00
2017-06-23T13:27:15.759Z,6.80
2017-06-23T13:29:44.202Z,7.90
2017-06-23T13:32:13.353Z,6.90
2017-06-23T13:34:41.741Z,5.80
2017-06-23T13:37:10.191Z,5.50
2017-06-23T13:39:38.589Z,3.77
2017-06-23T13:42:06.976Z,6.17
2017-06-23T13:44:35.398Z,6.40
2017-06-23T13:47:03.784Z,6.40
2017-06-23T13:49:33.240Z,6.60
2017-06-23T13:52:01.672Z,6.90
2017-06-23T13:54:30.071Z,5.17
2017-06-23T13:56:58.465Z,6.70
2017-06-23T13:59:26.886Z,7.63
2017-06-23T14:01:55.304Z,6.00
2017-06-23T14:04:23.703Z,6.47
2017-06-23T14:06:52.111Z,5.40
2017-06-23T14:09:21.265Z,4.97
2017-06-23T14:11:49.680Z,4.53
2017-06-23T14:14:18.873Z,5.50
2017-06-23T14:16:47.273Z,4.60
2017-06-23T14:19:15.665Z,6.10
2017-06-23T14:21:44.093Z,5.53
2017-06-23T14:24:12.502Z,4.90
2017-06-23T14:26:41.689Z,5.60
2017-06-23T14:29:10.901Z,4.40
2017-06-23T14:31:39.305Z,6.47
2017-06-23T14:34:07.681Z,4.40
2017-06-23T14:36:36.101Z,5.57
2017-06-23T14:39:03.619Z,5.23
2017-06-23T14:41:32.001Z,5.73
2017-06-23T14:44:00.429Z,5.00
2017-06-23T14:46:28.816Z,5.13
2017-06-23T14:48:57.984Z,4.90
2017-06-23T14:51:26.388Z,5.60
2017-06-23T14:53:54.831Z,5.47
2017-06-23T14:56:30.287Z,5.43
2017-06-23T14:58:58.692Z,5.33
2017-06-23T15:01:27.865Z,5.07
2017-06-23T15:03:56.288Z,5.33
2017-06-23T15:06:24.689Z,5.90
2017-06-23T15:08:53.081Z,5.30
2017-06-23T15:11:21.492Z,5.53
2017-06-23T15:13:49.902Z,5.00
2017-06-23T15:16:18.305Z,5.90
2017-06-23T15:18:46.724Z,5.20
2017-06-23T15:21:15.117Z,5.80
2017-06-23T15:23:44.284Z,6.00
2017-06-23T15:26:12.697Z,6.90
2017-06-23T15:28:41.857Z,6.20
2017-06-23T15:31:10.247Z,7.10
2017-06-23T15:33:38.737Z,6.17
2017-06-23T15:36:07.236Z,6.00
2017-06-23T15:38:37.469Z,6.00
2017-06-23T15:41:05.977Z,7.63
2017-06-23T15:43:34.376Z,6.90
2017-06-23T15:46:02.771Z,6.00
2017-06-23T15:48:31.177Z,6.43
2017-06-23T15:51:00.338Z,4.93
2017-06-23T15:53:28.737Z,4.93
2017-06-23T15:55:57.152Z,5.87
2017-06-23T15:58:25.552Z,5.53
2017-06-23T16:00:54.007Z,4.53
2017-06-23T16:03:22.434Z,4.60
2017-06-23T16:05:51.078Z,5.93
2017-06-23T16:08:19.531Z,6.37
2017-06-23T16:10:47.953Z,5.10
2017-06-23T16:13:16.345Z,4.80
2017-06-23T16:15:44.753Z,4.83
2017-06-23T16:18:13.945Z,4.80
2017-06-23T16:20:42.317Z,4.63
2017-06-23T16:23:10.717Z,4.07
2017-06-23T16:25:39.916Z,4.30
2017-06-23T16:28:09.093Z,4.70
2017-06-23T16:30:37.489Z,3.70
2017-06-23T16:33:06.677Z,4.00
2017-06-23T16:35:35.066Z,4.40
2017-06-23T16:38:04.263Z,4.67
2017-06-23T16:40:33.436Z,4.50
2017-06-23T16:43:01.824Z,3.97
2017-06-23T16:45:30.201Z,3.03
2017-06-23T16:47:58.762Z,3.00
2017-06-23T16:50:27.165Z,3.83
2017-06-23T16:52:56.349Z,4.53
2017-06-23T16:55:24.760Z,3.60
2017-06-23T16:57:53.148Z,3.57
2017-06-23T17:00:21.541Z,2.70
2017-06-23T17:02:49.973Z,3.30
2017-06-23T17:05:18.349Z,3.30
2017-06-23T17:07:46.734Z,3.20
2017-06-23T17:10:15.978Z,3.17
2017-06-23T17:12:44.366Z,2.60
2017-06-23T17:15:12.759Z,4.17
2017-06-23T17:17:41.193Z,3.30
2017-06-23T17:20:09.582Z,3.77
2017-06-23T17:22:37.995Z,3.77
2017-06-23T17:25:06.489Z,3.80
2017-06-23T17:27:36.423Z,3.57
2017-06-23T17:30:05.614Z,3.73
2017-06-23T17:32:34.003Z,3.20
2017-06-23T17:35:03.173Z,3.00
2017-06-23T17:37:31.605Z,3.27
2017-06-23T17:40:16.722Z,3.30
2017-06-23T17:42:45.182Z,3.70
2017-06-23T17:45:13.578Z,2.90
2017-06-23T17:47:41.966Z,2.90
2017-06-23T17:50:10.385Z,3.20
2017-06-23T17:52:38.829Z,3.53
2017-06-23T17:55:07.218Z,3.77
2017-06-23T17:57:36.387Z,3.90
2017-06-23T18:00:04.438Z,3.10
2017-06-23T18:02:32.830Z,3.83
2017-06-23T18:05:01.270Z,3.13
2017-06-23T18:07:29.862Z,3.80
2017-06-23T18:09:58.249Z,3.40
2017-06-23T18:12:26.669Z,2.87
2017-06-23T18:14:55.850Z,3.30
2017-06-23T18:17:24.245Z,2.83
2017-06-23T18:19:52.664Z,3.63
2017-06-23T18:22:21.071Z,3.10
2017-06-23T18:24:49.453Z,2.90
2017-06-23T18:27:17.887Z,3.70
2017-06-23T18:29:46.266Z,3.00
2017-06-23T18:32:14.660Z,3.77
2017-06-23T18:34:43.074Z,2.47
2017-06-23T18:37:11.484Z,3.63
2017-06-23T18:39:40.004Z,2.93
2017-06-23T18:42:08.413Z,3.13
2017-06-23T18:44:36.818Z,2.73
2017-06-23T18:47:05.956Z,2.90
2017-06-23T18:49:34.362Z,2.80
2017-06-23T18:52:02.761Z,3.30
2017-06-23T18:54:31.257Z,3.90
2017-06-23T18:56:59.750Z,3.03
2017-06-23T18:59:28.225Z,2.90
2017-06-23T19:01:56.618Z,3.30
2017-06-23T19:04:25.056Z,3.23
2017-06-23T19:06:53.646Z,3.10
2017-06-23T19:09:22.033Z,2.90
2017-06-23T19:11:52.089Z,3.77
2017-06-23T19:14:20.475Z,3.10
2017-06-23T19:16:48.864Z,3.60
2017-06-23T19:19:17.301Z,3.50
2017-06-23T19:21:45.704Z,3.47
2017-06-23T19:24:14.133Z,2.80
2017-06-23T19:26:42.545Z,3.70
2017-06-23T19:29:10.986Z,3.70
2017-06-23T19:31:39.390Z,3.00
2017-06-23T19:34:07.815Z,3.30
2017-06-23T19:36:36.206Z,4.47
2017-06-23T19:39:03.905Z,4.23
2017-06-23T19:41:32.353Z,4.20
2017-06-23T19:44:00.804Z,4.13
2017-06-23T19:46:29.207Z,3.70
2017-06-23T19:48:57.626Z,3.70
2017-06-23T19:51:25.940Z,4.20
2017-06-23T19:53:54.330Z,4.33
2017-06-23T19:56:22.749Z,4.30
2017-06-23T19:58:52.581Z,4.53
2017-06-23T20:01:21.349Z,4.43
2017-06-23T20:03:50.688Z,4.37
2017-06-23T20:06:18.942Z,4.60
2017-06-23T20:08:47.385Z,5.00
2017-06-23T20:11:15.809Z,5.30
2017-06-23T20:13:44.206Z,4.27
2017-06-23T20:16:12.595Z,5.07
2017-06-23T20:18:41.014Z,4.67
2017-06-23T20:21:09.386Z,5.20
2017-06-23T20:23:37.787Z,5.20
2017-06-23T20:26:06.266Z,5.07
2017-06-23T20:28:34.644Z,4.53
2017-06-23T20:31:03.870Z,5.20
2017-06-23T20:33:32.293Z,4.33
2017-06-23T20:36:00.672Z,4.70
2017-06-23T20:38:29.061Z,4.53
2017-06-23T20:40:58.236Z,4.27
2017-06-23T20:43:26.721Z,4.50
2017-06-23T20:45:55.121Z,4.47
2017-06-23T20:48:24.312Z,4.83
2017-06-23T20:50:53.456Z,4.90
2017-06-23T20:53:21.854Z,4.00
2017-06-23T20:55:50.366Z,5.10
2017-06-23T20:58:18.753Z,4.00
2017-06-23T21:00:47.901Z,4.97
2017-06-23T21:03:16.355Z,4.27
2017-06-23T21:05:44.745Z,3.60
2017-06-23T21:08:13.121Z,4.23
2017-06-23T21:10:41.563Z,4.30
2017-06-23T21:13:10.724Z,3.90
2017-06-23T21:15:39.130Z,4.70
2017-06-23T21:18:07.531Z,4.10
2017-06-23T21:20:35.921Z,5.13
2017-06-23T21:23:04.328Z,4.60
2017-06-23T21:25:32.799Z,4.43
2017-06-23T21:28:01.209Z,4.27
2017-06-23T21:30:29.652Z,3.70
2017-06-23T21:32:58.057Z,4.30
2017-06-23T21:35:26.452Z,5.13
2017-06-23T21:37:54.901Z,4.80
2017-06-23T21:40:34.497Z,3.90
2017-06-23T21:43:03.691Z,4.10
2017-06-23T21:45:32.852Z,3.50
2017-06-23T21:48:01.270Z,3.90
2017-06-23T21:50:30.426Z,3.63
2017-06-23T21:52:58.831Z,4.10
2017-06-23T21:55:28.014Z,4.50
2017-06-23T21:57:56.412Z,3.60
2017-06-23T22:00:26.076Z,3.90
2017-06-23T22:02:54.571Z,3.33
2017-06-23T22:05:23.435Z,3.57
2017-06-23T22:07:51.919Z,4.27
2017-06-23T22:10:20.386Z,4.23
2017-06-23T22:12:48.803Z,3.50
2017-06-23T22:15:17.207Z,3.83
2017-06-23T22:17:46.398Z,4.13
2017-06-23T22:20:14.787Z,3.50
2017-06-23T22:22:43.265Z,3.83
2017-06-23T22:25:11.727Z,3.50
2017-06-23T22:27:40.104Z,3.93
2017-06-23T22:30:08.496Z,3.07
2017-06-23T22:32:37.738Z,3.60
2017-06-23T22:35:06.126Z,3.80
2017-06-23T22:37:34.562Z,4.13
2017-06-23T22:40:03.747Z,3.70
2017-06-23T22:42:32.914Z,4.20
2017-06-23T22:45:01.307Z,3.80
2017-06-23T22:47:29.846Z,3.53
2017-06-23T22:49:58.218Z,3.93
2017-06-23T22:52:26.606Z,4.40
2017-06-23T22:54:55.085Z,4.40
2017-06-23T22:57:23.459Z,3.63
2017-06-23T22:59:51.836Z,4.03
2017-06-23T23:02:20.254Z,3.97
2017-06-23T23:04:48.641Z,3.83
2017-06-23T23:07:17.030Z,3.63
2017-06-23T23:09:46.202Z,4.20
2017-06-23T23:12:14.589Z,2.60
2017-06-23T23:14:42.983Z,3.43
2017-06-23T23:17:12.149Z,3.67
2017-06-23T23:19:40.537Z,3.87
2017-06-23T23:22:33.021Z,3.10
2017-06-23T23:25:01.397Z,3.47
2017-06-23T23:27:30.565Z,3.37
2017-06-23T23:32:49.518Z,3.60
2017-06-23T23:35:17.890Z,3.37
2017-06-23T23:37:47.270Z,3.70
2017-06-23T23:40:15.657Z,3.43
2017-06-23T23:42:44.064Z,3.10
2017-06-23T23:45:12.166Z,3.87
2017-06-23T23:47:41.320Z,3.30
2017-06-23T23:50:09.727Z,3.23
2017-06-23T23:52:38.113Z,3.23
2017-06-23T23:55:07.723Z,2.93
2017-06-23T23:57:36.882Z,2.73
